Station History

Weather Underground - logo

Station Historical Data
Daily Summary for December 28, 2017 Units:  Both    English   Metric
« Previous Day
Next Day »
Daily Weekly Monthly Yearly Custom
  High: Low: Average:
Temperature: 62.2 °F /  16.8 °C 33.9 °F /  1.1 °C 46.2 °F /  7.9 °C
Dew Point: 43.7 °F /  6.5 °C 31.6 °F /  -0.2 °C 38.5 °F /  3.6 °C
Humidity: 93 % 48 % 77 %
Wind Speed: 3.5 mph /  5.6 km/h - 0.2 mph /  0.3 km/h
Wind Gust: 3.5 mph /  5.6 km/h - -
Wind:- - WSW
Pressure: 30.32 in /  1026.6 hPa 30.21 in /  1022.9 hPa -
Precipitation: 0.00 in /  0 mm    
Historical Graphs
 
 
Tabular Data for December 28, 2017
Time Temperature Dew Point Pressure Wind Wind Speed Wind Gust Humidity Rainfall Rate (Hourly)
00:03 40.9 °F /  4.9 °C 36.4 °F /  2.4 °C 30.32 in /  1026.6 hPa Calm     84 % 0.00 in /  0 mm
00:06 40.7 °F /  4.8 °C 36.2 °F /  2.3 °C 30.31 in /  1026.3 hPa Calm     84 % 0.00 in /  0 mm
00:11 40.7 °F /  4.8 °C 36.8 °F /  2.7 °C 30.31 in /  1026.3 hPa East 1.2 mph /  1.9 km/h 1.2 mph /  1.9 km/h 86 % 0.00 in /  0 mm
00:12 40.8 °F /  4.9 °C 36.9 °F /  2.7 °C 30.32 in /  1026.6 hPa East 1.2 mph /  1.9 km/h 1.2 mph /  1.9 km/h 86 % 0.00 in /  0 mm
00:17 41.3 °F /  5.2 °C 37.1 °F /  2.8 °C 30.32 in /  1026.6 hPa Calm     85 % 0.00 in /  0 mm
00:22 41.5 °F /  5.3 °C 37.0 °F /  2.8 °C 30.31 in /  1026.3 hPa East 1.2 mph /  1.9 km/h   84 % 0.00 in /  0 mm
00:27 41.8 °F /  5.4 °C 37.3 °F /  2.9 °C 30.31 in /  1026.3 hPa Calm     84 % 0.00 in /  0 mm
00:29 41.8 °F /  5.4 °C 37.0 °F /  2.8 °C 30.31 in /  1026.3 hPa Calm     83 % 0.00 in /  0 mm
00:34 41.6 °F /  5.3 °C 36.8 °F /  2.7 °C 30.31 in /  1026.3 hPa Calm     83 % 0.00 in /  0 mm
00:35 41.5 °F /  5.3 °C 36.7 °F /  2.6 °C 30.31 in /  1026.3 hPa Calm     83 % 0.00 in /  0 mm
00:40 40.7 °F /  4.8 °C 35.9 °F /  2.2 °C 30.30 in /  1026 hPa Calm     83 % 0.00 in /  0 mm
00:42 40.4 °F /  4.7 °C 35.6 °F /  2 °C 30.30 in /  1026 hPa Calm     83 % 0.00 in /  0 mm
00:47 39.8 °F /  4.3 °C 35.4 °F /  1.9 °C 30.30 in /  1026 hPa East 1.2 mph /  1.9 km/h   84 % 0.00 in /  0 mm
00:52 39.3 °F /  4.1 °C 35.2 °F /  1.8 °C 30.30 in /  1026 hPa Calm     85 % 0.00 in /  0 mm
00:53 39.2 °F /  4 °C 35.1 °F /  1.7 °C 30.29 in /  1025.6 hPa Calm     85 % 0.00 in /  0 mm
00:58 38.9 °F /  3.8 °C 35.1 °F /  1.7 °C 30.29 in /  1025.6 hPa Calm     86 % 0.00 in /  0 mm
01:03 38.7 °F /  3.7 °C 35.2 °F /  1.8 °C 30.29 in /  1025.6 hPa Calm     87 % 0.00 in /  0 mm
01:05 38.7 °F /  3.7 °C 35.2 °F /  1.8 °C 30.29 in /  1025.6 hPa Calm     87 % 0.00 in /  0 mm
01:09 38.4 °F /  3.6 °C 34.6 °F /  1.4 °C 30.29 in /  1025.6 hPa Calm     86 % 0.00 in /  0 mm
01:11 38.3 °F /  3.5 °C 34.5 °F /  1.4 °C 30.29 in /  1025.6 hPa Calm     86 % 0.00 in /  0 mm
01:16 38.0 °F /  3.3 °C 34.5 °F /  1.4 °C 30.29 in /  1025.6 hPa Calm     87 % 0.00 in /  0 mm
01:19 37.9 °F /  3.3 °C 34.4 °F /  1.3 °C 30.29 in /  1025.6 hPa Calm     87 % 0.00 in /  0 mm
01:24 37.6 °F /  3.1 °C 34.1 °F /  1.2 °C 30.29 in /  1025.6 hPa Calm     87 % 0.00 in /  0 mm
01:26 37.5 °F /  3.1 °C 34.3 °F /  1.3 °C 30.29 in /  1025.6 hPa Calm     88 % 0.00 in /  0 mm
01:29 37.6 °F /  3.1 °C 34.4 °F /  1.3 °C 30.29 in /  1025.6 hPa Calm     88 % 0.00 in /  0 mm
01:32 37.6 °F /  3.1 °C 34.7 °F /  1.5 °C 30.29 in /  1025.6 hPa Calm     89 % 0.00 in /  0 mm
01:36 37.6 °F /  3.1 °C 34.7 °F /  1.5 °C 30.29 in /  1025.6 hPa Calm     89 % 0.00 in /  0 mm
01:39 37.6 °F /  3.1 °C 34.7 °F /  1.5 °C 30.29 in /  1025.6 hPa Calm     89 % 0.00 in /  0 mm
01:44 37.7 °F /  3.2 °C 34.8 °F /  1.6 °C 30.29 in /  1025.6 hPa Calm     89 % 0.00 in /  0 mm
01:45 37.7 °F /  3.2 °C 34.8 °F /  1.6 °C 30.29 in /  1025.6 hPa Calm     89 % 0.00 in /  0 mm
01:46 37.7 °F /  3.2 °C 34.8 °F /  1.6 °C 30.29 in /  1025.6 hPa Calm     89 % 0.00 in /  0 mm
01:51 37.7 °F /  3.2 °C 34.8 °F /  1.6 °C 30.29 in /  1025.6 hPa Calm     89 % 0.00 in /  0 mm
01:56 37.6 °F /  3.1 °C 34.7 °F /  1.5 °C 30.29 in /  1025.6 hPa Calm     89 % 0.00 in /  0 mm
01:59 37.3 °F /  2.9 °C 34.1 °F /  1.2 °C 30.29 in /  1025.6 hPa Calm     88 % 0.00 in /  0 mm
02:04 37.1 °F /  2.8 °C 34.2 °F /  1.2 °C 30.30 in /  1026 hPa Calm     89 % 0.00 in /  0 mm
02:06 37.0 °F /  2.8 °C 34.1 °F /  1.2 °C 30.29 in /  1025.6 hPa Calm     89 % 0.00 in /  0 mm
02:09 36.9 °F /  2.7 °C 34.0 °F /  1.1 °C 30.29 in /  1025.6 hPa Calm     89 % 0.00 in /  0 mm
02:12 36.8 °F /  2.7 °C 33.9 °F /  1.1 °C 30.30 in /  1026 hPa Calm     89 % 0.00 in /  0 mm
02:17 36.8 °F /  2.7 °C 34.1 °F /  1.2 °C 30.30 in /  1026 hPa Calm     90 % 0.00 in /  0 mm
02:18 36.8 °F /  2.7 °C 34.1 °F /  1.2 °C 30.30 in /  1026 hPa Calm     90 % 0.00 in /  0 mm
02:23 36.9 °F /  2.7 °C 34.5 °F /  1.4 °C 30.30 in /  1026 hPa Calm     91 % 0.00 in /  0 mm
02:28 37.1 °F /  2.8 °C 34.7 °F /  1.5 °C 30.30 in /  1026 hPa Calm     91 % 0.00 in /  0 mm
02:29 37.1 °F /  2.8 °C 34.7 °F /  1.5 °C 30.30 in /  1026 hPa Calm     91 % 0.00 in /  0 mm
02:33 37.4 °F /  3 °C 35.0 °F /  1.7 °C 30.30 in /  1026 hPa Calm     91 % 0.00 in /  0 mm
02:35 37.5 °F /  3.1 °C 35.1 °F /  1.7 °C 30.30 in /  1026 hPa Calm     91 % 0.00 in /  0 mm
02:40 37.7 °F /  3.2 °C 35.3 °F /  1.8 °C 30.30 in /  1026 hPa Calm     91 % 0.00 in /  0 mm
02:41 37.8 °F /  3.2 °C 35.4 °F /  1.9 °C 30.30 in /  1026 hPa Calm     91 % 0.00 in /  0 mm
02:42 37.8 °F /  3.2 °C 35.1 °F /  1.7 °C 30.30 in /  1026 hPa Calm     90 % 0.00 in /  0 mm
02:47 37.8 °F /  3.2 °C 35.1 °F /  1.7 °C 30.29 in /  1025.6 hPa Calm     90 % 0.00 in /  0 mm
02:50 37.7 °F /  3.2 °C 35.0 °F /  1.7 °C 30.29 in /  1025.6 hPa Calm     90 % 0.00 in /  0 mm
02:51 37.7 °F /  3.2 °C 35.0 °F /  1.7 °C 30.29 in /  1025.6 hPa Calm     90 % 0.00 in /  0 mm
02:55 37.7 °F /  3.2 °C 35.0 °F /  1.7 °C 30.30 in /  1026 hPa Calm     90 % 0.00 in /  0 mm
02:56 37.7 °F /  3.2 °C 35.0 °F /  1.7 °C 30.30 in /  1026 hPa Calm     90 % 0.00 in /  0 mm
03:01 38.0 °F /  3.3 °C 35.3 °F /  1.8 °C 30.30 in /  1026 hPa East 1.2 mph /  1.9 km/h 1.2 mph /  1.9 km/h 90 % 0.00 in /  0 mm
03:02 38.0 °F /  3.3 °C 35.3 °F /  1.8 °C 30.30 in /  1026 hPa Calm     90 % 0.00 in /  0 mm
03:07 38.2 °F /  3.4 °C 35.5 °F /  1.9 °C 30.29 in /  1025.6 hPa Calm     90 % 0.00 in /  0 mm
03:08 38.2 °F /  3.4 °C 35.5 °F /  1.9 °C 30.29 in /  1025.6 hPa Calm     90 % 0.00 in /  0 mm
03:14 38.3 °F /  3.5 °C 35.3 °F /  1.8 °C 30.29 in /  1025.6 hPa Calm     89 % 0.00 in /  0 mm
03:19 38.3 °F /  3.5 °C 35.1 °F /  1.7 °C 30.29 in /  1025.6 hPa Calm     88 % 0.00 in /  0 mm
03:22 38.1 °F /  3.4 °C 34.9 °F /  1.6 °C 30.29 in /  1025.6 hPa Calm     88 % 0.00 in /  0 mm
03:27 37.7 °F /  3.2 °C 34.5 °F /  1.4 °C 30.29 in /  1025.6 hPa Calm     88 % 0.00 in /  0 mm
03:28 37.6 °F /  3.1 °C 34.4 °F /  1.3 °C 30.30 in /  1026 hPa Calm     88 % 0.00 in /  0 mm
03:31 37.2 °F /  2.9 °C 34.0 °F /  1.1 °C 30.30 in /  1026 hPa Calm     88 % 0.00 in /  0 mm
03:34 36.9 °F /  2.7 °C 33.7 °F /  0.9 °C 30.30 in /  1026 hPa Calm     88 % 0.00 in /  0 mm
03:39 37.3 °F /  2.9 °C 34.6 °F /  1.4 °C 30.30 in /  1026 hPa East 1.2 mph /  1.9 km/h 1.2 mph /  1.9 km/h 90 % 0.00 in /  0 mm
03:41 37.5 °F /  3.1 °C 34.8 °F /  1.6 °C 30.30 in /  1026 hPa Calm     90 % 0.00 in /  0 mm
03:46 37.9 °F /  3.3 °C 35.2 °F /  1.8 °C 30.30 in /  1026 hPa Calm     90 % 0.00 in /  0 mm
03:49 38.4 °F /  3.6 °C 35.7 °F /  2.1 °C 30.30 in /  1026 hPa East 1.2 mph /  1.9 km/h 1.2 mph /  1.9 km/h 90 % 0.00 in /  0 mm
03:52 38.8 °F /  3.8 °C 35.8 °F /  2.1 °C 30.30 in /  1026 hPa East 1.0 mph /  1.6 km/h   89 % 0.00 in /  0 mm
03:57 39.1 °F /  3.9 °C 35.8 °F /  2.1 °C 30.29 in /  1025.6 hPa Calm     88 % 0.00 in /  0 mm
03:59 39.1 °F /  3.9 °C 35.8 °F /  2.1 °C 30.29 in /  1025.6 hPa Calm     88 % 0.00 in /  0 mm
04:04 39.1 °F /  3.9 °C 35.8 °F /  2.1 °C 30.29 in /  1025.6 hPa Calm     88 % 0.00 in /  0 mm
04:06 39.2 °F /  4 °C 35.9 °F /  2.2 °C 30.29 in /  1025.6 hPa Calm     88 % 0.00 in /  0 mm
04:11 39.4 °F /  4.1 °C 36.1 °F /  2.3 °C 30.29 in /  1025.6 hPa Calm     88 % 0.00 in /  0 mm
04:15 39.5 °F /  4.2 °C 36.0 °F /  2.2 °C 30.29 in /  1025.6 hPa East 1.2 mph /  1.9 km/h   87 % 0.00 in /  0 mm
04:20 39.5 °F /  4.2 °C 35.7 °F /  2.1 °C 30.29 in /  1025.6 hPa Calm     86 % 0.00 in /  0 mm
04:25 39.4 °F /  4.1 °C 35.6 °F /  2 °C 30.28 in /  1025.3 hPa Calm     86 % 0.00 in /  0 mm
04:31 39.1 °F /  3.9 °C 35.3 °F /  1.8 °C 30.28 in /  1025.3 hPa Calm     86 % 0.00 in /  0 mm
04:36 38.6 °F /  3.7 °C 34.8 °F /  1.6 °C 30.28 in /  1025.3 hPa Calm     86 % 0.00 in /  0 mm
04:39 38.2 °F /  3.4 °C 34.1 °F /  1.2 °C 30.28 in /  1025.3 hPa Calm     85 % 0.00 in /  0 mm
04:44 37.6 °F /  3.1 °C 34.1 °F /  1.2 °C 30.28 in /  1025.3 hPa Calm     87 % 0.00 in /  0 mm
04:49 37.2 °F /  2.9 °C 34.0 °F /  1.1 °C 30.27 in /  1024.9 hPa Calm     88 % 0.00 in /  0 mm
04:52 36.8 °F /  2.7 °C 33.3 °F /  0.7 °C 30.27 in /  1024.9 hPa Calm     87 % 0.00 in /  0 mm
04:57 35.9 °F /  2.2 °C 32.4 °F /  0.2 °C 30.27 in /  1024.9 hPa Calm     87 % 0.00 in /  0 mm
04:59 35.6 °F /  2 °C 32.4 °F /  0.2 °C 30.27 in /  1024.9 hPa Calm     88 % 0.00 in /  0 mm
05:03 35.4 °F /  1.9 °C 32.2 °F /  0.1 °C 30.27 in /  1024.9 hPa East 1.2 mph /  1.9 km/h   88 % 0.00 in /  0 mm
05:06 35.2 °F /  1.8 °C 32.3 °F /  0.2 °C 30.27 in /  1024.9 hPa East 1.2 mph /  1.9 km/h   89 % 0.00 in /  0 mm
05:08 35.0 °F /  1.7 °C 32.1 °F /  0.1 °C 30.27 in /  1024.9 hPa Calm     89 % 0.00 in /  0 mm
05:10 34.9 °F /  1.6 °C 32.3 °F /  0.2 °C 30.27 in /  1024.9 hPa Calm     90 % 0.00 in /  0 mm
05:14 34.8 °F /  1.6 °C 32.2 °F /  0.1 °C 30.27 in /  1024.9 hPa Calm     90 % 0.00 in /  0 mm
05:16 34.8 °F /  1.6 °C 32.2 °F /  0.1 °C 30.27 in /  1024.9 hPa Calm     90 % 0.00 in /  0 mm
05:20 34.7 °F /  1.5 °C 32.3 °F /  0.2 °C 30.28 in /  1025.3 hPa Calm     91 % 0.00 in /  0 mm
05:25 34.5 °F /  1.4 °C 32.1 °F /  0.1 °C 30.27 in /  1024.9 hPa East 1.2 mph /  1.9 km/h   91 % 0.00 in /  0 mm
05:27 34.5 °F /  1.4 °C 32.1 °F /  0.1 °C 30.27 in /  1024.9 hPa East 1.0 mph /  1.6 km/h 1.0 mph /  1.6 km/h 91 % 0.00 in /  0 mm
05:32 34.2 °F /  1.2 °C 31.8 °F /  -0.1 °C 30.27 in /  1024.9 hPa Calm     91 % 0.00 in /  0 mm
05:33 34.1 °F /  1.2 °C 31.7 °F /  -0.2 °C 30.27 in /  1024.9 hPa Calm     91 % 0.00 in /  0 mm
05:38 34.0 °F /  1.1 °C 31.6 °F /  -0.2 °C 30.27 in /  1024.9 hPa Calm     91 % 0.00 in /  0 mm
05:39 34.0 °F /  1.1 °C 31.6 °F /  -0.2 °C 30.27 in /  1024.9 hPa Calm     91 % 0.00 in /  0 mm
05:44 33.9 °F /  1.1 °C 31.6 °F /  -0.2 °C 30.28 in /  1025.3 hPa Calm     91 % 0.00 in /  0 mm
05:45 33.9 °F /  1.1 °C 31.6 °F /  -0.2 °C 30.28 in /  1025.3 hPa Calm     91 % 0.00 in /  0 mm
05:47 34.0 °F /  1.1 °C 31.9 °F /  -0.1 °C 30.28 in /  1025.3 hPa Calm     92 % 0.00 in /  0 mm
05:52 34.0 °F /  1.1 °C 31.9 °F /  -0.1 °C 30.28 in /  1025.3 hPa Calm     92 % 0.00 in /  0 mm
05:57 34.1 °F /  1.2 °C 32.0 °F /  0 °C 30.28 in /  1025.3 hPa Calm     92 % 0.00 in /  0 mm
05:58 34.1 °F /  1.2 °C 32.0 °F /  0 °C 30.28 in /  1025.3 hPa Calm     92 % 0.00 in /  0 mm
06:00 34.2 °F /  1.2 °C 32.1 °F /  0.1 °C 30.28 in /  1025.3 hPa Calm     92 % 0.00 in /  0 mm
06:04 34.2 °F /  1.2 °C 32.1 °F /  0.1 °C 30.28 in /  1025.3 hPa Calm     92 % 0.00 in /  0 mm
06:07 34.2 °F /  1.2 °C 32.1 °F /  0.1 °C 30.28 in /  1025.3 hPa Calm     92 % 0.00 in /  0 mm
06:11 34.2 °F /  1.2 °C 32.1 °F /  0.1 °C 30.28 in /  1025.3 hPa Calm     92 % 0.00 in /  0 mm
06:15 34.2 °F /  1.2 °C 32.1 °F /  0.1 °C 30.28 in /  1025.3 hPa Calm     92 % 0.00 in /  0 mm
06:20 34.3 °F /  1.3 °C 32.2 °F /  0.1 °C 30.28 in /  1025.3 hPa Calm     92 % 0.00 in /  0 mm
06:21 34.3 °F /  1.3 °C 32.2 °F /  0.1 °C 30.28 in /  1025.3 hPa Calm     92 % 0.00 in /  0 mm
06:26 34.6 °F /  1.4 °C 32.8 °F /  0.4 °C 30.28 in /  1025.3 hPa Calm     93 % 0.00 in /  0 mm
06:31 34.8 °F /  1.6 °C 33.0 °F /  0.6 °C 30.29 in /  1025.6 hPa Calm     93 % 0.00 in /  0 mm
06:32 34.8 °F /  1.6 °C 33.0 °F /  0.6 °C 30.29 in /  1025.6 hPa Calm     93 % 0.00 in /  0 mm
06:35 35.0 °F /  1.7 °C 33.2 °F /  0.7 °C 30.29 in /  1025.6 hPa Calm     93 % 0.00 in /  0 mm
06:38 35.1 °F /  1.7 °C 33.3 °F /  0.7 °C 30.29 in /  1025.6 hPa Calm     93 % 0.00 in /  0 mm
06:43 35.3 °F /  1.8 °C 33.5 °F /  0.8 °C 30.29 in /  1025.6 hPa Calm     93 % 0.00 in /  0 mm
06:44 35.4 °F /  1.9 °C 33.6 °F /  0.9 °C 30.29 in /  1025.6 hPa Calm     93 % 0.00 in /  0 mm
06:45 35.4 °F /  1.9 °C 33.6 °F /  0.9 °C 30.29 in /  1025.6 hPa Calm     93 % 0.00 in /  0 mm
06:50 35.5 °F /  1.9 °C 33.4 °F /  0.8 °C 30.29 in /  1025.6 hPa Calm     92 % 0.00 in /  0 mm
06:56 35.5 °F /  1.9 °C 33.4 °F /  0.8 °C 30.29 in /  1025.6 hPa Calm     92 % 0.00 in /  0 mm
07:02 35.7 °F /  2.1 °C 33.6 °F /  0.9 °C 30.29 in /  1025.6 hPa Calm     92 % 0.00 in /  0 mm
07:04 35.7 °F /  2.1 °C 33.6 °F /  0.9 °C 30.29 in /  1025.6 hPa Calm     92 % 0.00 in /  0 mm
07:09 35.7 °F /  2.1 °C 33.3 °F /  0.7 °C 30.30 in /  1026 hPa Calm     91 % 0.00 in /  0 mm
07:10 35.6 °F /  2 °C 33.2 °F /  0.7 °C 30.30 in /  1026 hPa Calm     91 % 0.00 in /  0 mm
07:11 35.6 °F /  2 °C 33.2 °F /  0.7 °C 30.30 in /  1026 hPa Calm     91 % 0.00 in /  0 mm
07:16 35.3 °F /  1.8 °C 32.9 °F /  0.5 °C 30.30 in /  1026 hPa Calm     91 % 0.00 in /  0 mm
07:18 35.4 °F /  1.9 °C 33.0 °F /  0.6 °C 30.30 in /  1026 hPa Calm     91 % 0.00 in /  0 mm
07:22 35.4 °F /  1.9 °C 33.3 °F /  0.7 °C 30.30 in /  1026 hPa Calm     92 % 0.00 in /  0 mm
07:27 35.5 °F /  1.9 °C 33.4 °F /  0.8 °C 30.30 in /  1026 hPa Calm     92 % 0.00 in /  0 mm
07:32 35.3 °F /  1.8 °C 32.9 °F /  0.5 °C 30.30 in /  1026 hPa Calm     91 % 0.00 in /  0 mm
07:34 35.4 °F /  1.9 °C 33.3 °F /  0.7 °C 30.30 in /  1026 hPa Calm     92 % 0.00 in /  0 mm
07:38 35.5 °F /  1.9 °C 33.4 °F /  0.8 °C 30.30 in /  1026 hPa Calm     92 % 0.00 in /  0 mm
07:39 35.6 °F /  2 °C 33.5 °F /  0.8 °C 30.30 in /  1026 hPa Calm     92 % 0.00 in /  0 mm
07:44 35.8 °F /  2.1 °C 33.7 °F /  0.9 °C 30.30 in /  1026 hPa Calm     92 % 0.00 in /  0 mm
07:45 35.8 °F /  2.1 °C 33.7 °F /  0.9 °C 30.30 in /  1026 hPa Calm     92 % 0.00 in /  0 mm
07:50 36.1 °F /  2.3 °C 34.0 °F /  1.1 °C 30.30 in /  1026 hPa Calm     92 % 0.00 in /  0 mm
07:55 36.5 °F /  2.5 °C 34.4 °F /  1.3 °C 30.31 in /  1026.3 hPa Calm     92 % 0.00 in /  0 mm
07:58 36.6 °F /  2.6 °C 34.2 °F /  1.2 °C 30.31 in /  1026.3 hPa Calm     91 % 0.00 in /  0 mm
07:59 36.7 °F /  2.6 °C 34.3 °F /  1.3 °C 30.31 in /  1026.3 hPa Calm     91 % 0.00 in /  0 mm
08:04 36.9 °F /  2.7 °C 34.5 °F /  1.4 °C 30.31 in /  1026.3 hPa Calm     91 % 0.00 in /  0 mm
08:09 37.2 °F /  2.9 °C 34.8 °F /  1.6 °C 30.31 in /  1026.3 hPa Calm     91 % 0.00 in /  0 mm
08:11 37.3 °F /  2.9 °C 34.9 °F /  1.6 °C 30.31 in /  1026.3 hPa Calm     91 % 0.00 in /  0 mm
08:16 37.8 °F /  3.2 °C 35.4 °F /  1.9 °C 30.32 in /  1026.6 hPa Calm     91 % 0.00 in /  0 mm
08:19 38.2 °F /  3.4 °C 36.1 °F /  2.3 °C 30.32 in /  1026.6 hPa Calm     92 % 0.00 in /  0 mm
08:21 38.6 °F /  3.7 °C 36.5 °F /  2.5 °C 30.32 in /  1026.6 hPa Calm     92 % 0.00 in /  0 mm
08:26 38.8 °F /  3.8 °C 36.1 °F /  2.3 °C 30.32 in /  1026.6 hPa Calm     90 % 0.00 in /  0 mm
08:28 38.9 °F /  3.8 °C 36.2 °F /  2.3 °C 30.32 in /  1026.6 hPa Calm     90 % 0.00 in /  0 mm
08:33 39.4 °F /  4.1 °C 36.7 °F /  2.6 °C 30.32 in /  1026.6 hPa Calm     90 % 0.00 in /  0 mm
08:35 39.7 °F /  4.3 °C 37.0 °F /  2.8 °C 30.32 in /  1026.6 hPa Calm     90 % 0.00 in /  0 mm
08:37 40.1 °F /  4.5 °C 37.7 °F /  3.2 °C 30.32 in /  1026.6 hPa Calm     91 % 0.00 in /  0 mm
08:41 40.9 °F /  4.9 °C 38.2 °F /  3.4 °C 30.32 in /  1026.6 hPa Calm     90 % 0.00 in /  0 mm
08:46 41.3 °F /  5.2 °C 38.0 °F /  3.3 °C 30.32 in /  1026.6 hPa Calm     88 % 0.00 in /  0 mm
08:51 41.8 °F /  5.4 °C 38.5 °F /  3.6 °C 30.32 in /  1026.6 hPa Calm     88 % 0.00 in /  0 mm
08:56 42.8 °F /  6 °C 39.2 °F /  4 °C 30.32 in /  1026.6 hPa Calm     87 % 0.00 in /  0 mm
09:01 44.0 °F /  6.7 °C 39.8 °F /  4.3 °C 30.32 in /  1026.6 hPa Calm     85 % 0.00 in /  0 mm
09:06 45.3 °F /  7.4 °C 40.4 °F /  4.7 °C 30.32 in /  1026.6 hPa Calm     83 % 0.00 in /  0 mm
09:08 45.8 °F /  7.7 °C 40.9 °F /  4.9 °C 30.32 in /  1026.6 hPa Calm     83 % 0.00 in /  0 mm
09:13 47.3 °F /  8.5 °C 41.8 °F /  5.4 °C 30.32 in /  1026.6 hPa ESE 1.2 mph /  1.9 km/h   81 % 0.00 in /  0 mm
09:14 47.5 °F /  8.6 °C 41.6 °F /  5.3 °C 30.32 in /  1026.6 hPa Calm     80 % 0.00 in /  0 mm
09:19 48.2 °F /  9 °C 42.0 °F /  5.6 °C 30.32 in /  1026.6 hPa Calm     79 % 0.00 in /  0 mm
09:21 48.5 °F /  9.2 °C 42.0 °F /  5.6 °C 30.32 in /  1026.6 hPa Calm     78 % 0.00 in /  0 mm
09:26 49.1 °F /  9.5 °C 41.9 °F /  5.5 °C 30.32 in /  1026.6 hPa Calm     76 % 0.00 in /  0 mm
09:28 49.3 °F /  9.6 °C 41.7 °F /  5.4 °C 30.32 in /  1026.6 hPa SSE 1.2 mph /  1.9 km/h 1.2 mph /  1.9 km/h 75 % 0.00 in /  0 mm
09:31 49.5 °F /  9.7 °C 41.9 °F /  5.5 °C 30.32 in /  1026.6 hPa Calm     75 % 0.00 in /  0 mm
09:33 49.7 °F /  9.8 °C 41.7 °F /  5.4 °C 30.32 in /  1026.6 hPa Calm   0.2 mph /  0.3 km/h 74 % 0.00 in /  0 mm
09:37 50.1 °F /  10.1 °C 41.8 °F /  5.4 °C 30.32 in /  1026.6 hPa SSE 1.2 mph /  1.9 km/h   73 % 0.00 in /  0 mm
09:39 50.2 °F /  10.1 °C 41.5 °F /  5.3 °C 30.32 in /  1026.6 hPa South 1.2 mph /  1.9 km/h 1.2 mph /  1.9 km/h 72 % 0.00 in /  0 mm
09:44 50.9 °F /  10.5 °C 41.8 °F /  5.4 °C 30.32 in /  1026.6 hPa Calm     71 % 0.00 in /  0 mm
09:46 51.0 °F /  10.6 °C 41.6 °F /  5.3 °C 30.32 in /  1026.6 hPa Calm     70 % 0.00 in /  0 mm
09:52 50.8 °F /  10.4 °C 41.0 °F /  5 °C 30.32 in /  1026.6 hPa NW 1.2 mph /  1.9 km/h 1.2 mph /  1.9 km/h 69 % 0.00 in /  0 mm
09:54 50.7 °F /  10.4 °C 41.3 °F /  5.2 °C 30.32 in /  1026.6 hPa North 1.2 mph /  1.9 km/h 1.2 mph /  1.9 km/h 70 % 0.00 in /  0 mm
09:59 51.1 °F /  10.6 °C 41.3 °F /  5.2 °C 30.32 in /  1026.6 hPa WNW 1.2 mph /  1.9 km/h 1.2 mph /  1.9 km/h 69 % 0.00 in /  0 mm
10:04 51.1 °F /  10.6 °C 41.7 °F /  5.4 °C 30.32 in /  1026.6 hPa Calm     70 % 0.00 in /  0 mm
10:05 51.1 °F /  10.6 °C 41.3 °F /  5.2 °C 30.32 in /  1026.6 hPa Calm     69 % 0.00 in /  0 mm
10:07 51.1 °F /  10.6 °C 41.3 °F /  5.2 °C 30.32 in /  1026.6 hPa WNW 1.2 mph /  1.9 km/h 1.2 mph /  1.9 km/h 69 % 0.00 in /  0 mm
10:11 50.9 °F /  10.5 °C 40.3 °F /  4.6 °C 30.32 in /  1026.6 hPa Calm     67 % 0.00 in /  0 mm
10:16 50.7 °F /  10.4 °C 40.5 °F /  4.7 °C 30.32 in /  1026.6 hPa Calm     68 % 0.00 in /  0 mm
10:17 50.7 °F /  10.4 °C 40.5 °F /  4.7 °C 30.31 in /  1026.3 hPa Calm     68 % 0.00 in /  0 mm
10:22 50.7 °F /  10.4 °C 41.3 °F /  5.2 °C 30.32 in /  1026.6 hPa Calm     70 % 0.00 in /  0 mm
10:27 51.0 °F /  10.6 °C 40.8 °F /  4.9 °C 30.31 in /  1026.3 hPa Calm     68 % 0.00 in /  0 mm
10:28 51.0 °F /  10.6 °C 40.8 °F /  4.9 °C 30.31 in /  1026.3 hPa Calm     68 % 0.00 in /  0 mm
10:33 51.1 °F /  10.6 °C 40.9 °F /  4.9 °C 30.31 in /  1026.3 hPa Calm     68 % 0.00 in /  0 mm
10:38 51.3 °F /  10.7 °C 41.5 °F /  5.3 °C 30.31 in /  1026.3 hPa Calm     69 % 0.00 in /  0 mm
10:43 52.2 °F /  11.2 °C 42.0 °F /  5.6 °C 30.31 in /  1026.3 hPa Calm     68 % 0.00 in /  0 mm
10:44 52.2 °F /  11.2 °C 42.0 °F /  5.6 °C 30.31 in /  1026.3 hPa Calm     68 % 0.00 in /  0 mm
10:49 53.2 °F /  11.8 °C 42.9 °F /  6.1 °C 30.31 in /  1026.3 hPa SW 1.2 mph /  1.9 km/h   68 % 0.00 in /  0 mm
10:51 53.7 °F /  12.1 °C 42.2 °F /  5.7 °C 30.31 in /  1026.3 hPa Calm     65 % 0.00 in /  0 mm
10:58 53.6 °F /  12 °C 41.3 °F /  5.2 °C 30.30 in /  1026 hPa Calm     63 % 0.00 in /  0 mm
11:03 53.8 °F /  12.1 °C 41.5 °F /  5.3 °C 30.30 in /  1026 hPa WSW 1.2 mph /  1.9 km/h   63 % 0.00 in /  0 mm
11:06 54.0 °F /  12.2 °C 41.3 °F /  5.2 °C 30.30 in /  1026 hPa WNW 1.2 mph /  1.9 km/h   62 % 0.00 in /  0 mm
11:07 54.1 °F /  12.3 °C 41.8 °F /  5.4 °C 30.30 in /  1026 hPa Calm     63 % 0.00 in /  0 mm
11:12 54.6 °F /  12.6 °C 41.4 °F /  5.2 °C 30.30 in /  1026 hPa Calm     61 % 0.00 in /  0 mm
11:17 55.4 °F /  13 °C 42.2 °F /  5.7 °C 30.29 in /  1025.6 hPa Calm     61 % 0.00 in /  0 mm
11:18 55.6 °F /  13.1 °C 42.4 °F /  5.8 °C 30.29 in /  1025.6 hPa SSE 1.2 mph /  1.9 km/h   61 % 0.00 in /  0 mm
11:23 56.0 °F /  13.3 °C 41.4 °F /  5.2 °C 30.29 in /  1025.6 hPa Calm     58 % 0.00 in /  0 mm
11:27 55.9 °F /  13.3 °C 41.3 °F /  5.2 °C 30.29 in /  1025.6 hPa NW 1.2 mph /  1.9 km/h 1.2 mph /  1.9 km/h 58 % 0.00 in /  0 mm
11:30 56.1 °F /  13.4 °C 42.0 °F /  5.6 °C 30.28 in /  1025.3 hPa WNW 1.0 mph /  1.6 km/h 1.0 mph /  1.6 km/h 59 % 0.00 in /  0 mm
11:35 56.3 °F /  13.5 °C 42.1 °F /  5.6 °C 30.28 in /  1025.3 hPa Calm   0.1 mph /  0.2 km/h 59 % 0.00 in /  0 mm
11:37 56.4 °F /  13.6 °C 41.8 °F /  5.4 °C 30.28 in /  1025.3 hPa WNW 1.2 mph /  1.9 km/h 1.2 mph /  1.9 km/h 58 % 0.00 in /  0 mm
11:43 56.7 °F /  13.7 °C 41.6 °F /  5.3 °C 30.28 in /  1025.3 hPa Calm     57 % 0.00 in /  0 mm
11:48 57.0 °F /  13.9 °C 41.9 °F /  5.5 °C 30.28 in /  1025.3 hPa Calm     57 % 0.00 in /  0 mm
11:49 57.1 °F /  13.9 °C 42.0 °F /  5.6 °C 30.28 in /  1025.3 hPa WNW 1.2 mph /  1.9 km/h 1.2 mph /  1.9 km/h 57 % 0.00 in /  0 mm
11:54 57.4 °F /  14.1 °C 42.3 °F /  5.7 °C 30.28 in /  1025.3 hPa Calm     57 % 0.00 in /  0 mm
11:59 57.8 °F /  14.3 °C 42.7 °F /  5.9 °C 30.28 in /  1025.3 hPa ESE 1.2 mph /  1.9 km/h   57 % 0.00 in /  0 mm
12:02 58.0 °F /  14.4 °C 42.4 °F /  5.8 °C 30.27 in /  1024.9 hPa NW 1.2 mph /  1.9 km/h 1.2 mph /  1.9 km/h 56 % 0.00 in /  0 mm
12:07 58.5 °F /  14.7 °C 42.8 °F /  6 °C 30.27 in /  1024.9 hPa ESE 1.2 mph /  1.9 km/h   56 % 0.00 in /  0 mm
12:11 58.6 °F /  14.8 °C 42.5 °F /  5.8 °C 30.27 in /  1024.9 hPa NW 1.2 mph /  1.9 km/h 1.2 mph /  1.9 km/h 55 % 0.00 in /  0 mm
12:17 58.8 °F /  14.9 °C 42.7 °F /  5.9 °C 30.27 in /  1024.9 hPa NW 2.3 mph /  3.7 km/h 2.3 mph /  3.7 km/h 55 % 0.00 in /  0 mm
12:18 58.8 °F /  14.9 °C 42.7 °F /  5.9 °C 30.26 in /  1024.6 hPa NW 1.2 mph /  1.9 km/h   55 % 0.00 in /  0 mm
12:23 59.0 °F /  15 °C 42.8 °F /  6 °C 30.26 in /  1024.6 hPa NW 2.0 mph /  3.2 km/h 2.0 mph /  3.2 km/h 55 % 0.00 in /  0 mm
12:27 59.1 °F /  15.1 °C 42.5 °F /  5.8 °C 30.26 in /  1024.6 hPa Calm     54 % 0.00 in /  0 mm
12:29 59.1 °F /  15.1 °C 42.5 °F /  5.8 °C 30.26 in /  1024.6 hPa NW 1.2 mph /  1.9 km/h 1.2 mph /  1.9 km/h 54 % 0.00 in /  0 mm
12:34 59.3 °F /  15.2 °C 42.6 °F /  5.9 °C 30.26 in /  1024.6 hPa NW 3.5 mph /  5.6 km/h 3.5 mph /  5.6 km/h 54 % 0.00 in /  0 mm
12:39 59.5 °F /  15.3 °C 43.3 °F /  6.3 °C 30.25 in /  1024.3 hPa Calm     55 % 0.00 in /  0 mm
12:43 59.9 °F /  15.5 °C 43.2 °F /  6.2 °C 30.25 in /  1024.3 hPa WSW 2.3 mph /  3.7 km/h 2.3 mph /  3.7 km/h 54 % 0.00 in /  0 mm
12:48 60.2 °F /  15.7 °C 43.5 °F /  6.4 °C 30.25 in /  1024.3 hPa WNW 1.2 mph /  1.9 km/h   54 % 0.00 in /  0 mm
12:52 60.4 °F /  15.8 °C 43.2 °F /  6.2 °C 30.24 in /  1023.9 hPa WNW 1.2 mph /  1.9 km/h   53 % 0.00 in /  0 mm
12:53 60.4 °F /  15.8 °C 43.2 °F /  6.2 °C 30.24 in /  1023.9 hPa West 2.3 mph /  3.7 km/h 2.3 mph /  3.7 km/h 53 % 0.00 in /  0 mm
12:58 60.3 °F /  15.7 °C 42.6 °F /  5.9 °C 30.24 in /  1023.9 hPa WNW 1.2 mph /  1.9 km/h   52 % 0.00 in /  0 mm
13:00 60.3 °F /  15.7 °C 42.6 °F /  5.9 °C 30.24 in /  1023.9 hPa WNW 1.2 mph /  1.9 km/h   52 % 0.00 in /  0 mm
13:02 60.3 °F /  15.7 °C 42.6 °F /  5.9 °C 30.24 in /  1023.9 hPa Calm     52 % 0.00 in /  0 mm
13:06 60.7 °F /  15.9 °C 43.5 °F /  6.4 °C 30.23 in /  1023.6 hPa Calm     53 % 0.00 in /  0 mm
13:08 60.9 °F /  16.1 °C 43.1 °F /  6.2 °C 30.23 in /  1023.6 hPa Calm     52 % 0.00 in /  0 mm
13:13 61.1 °F /  16.2 °C 42.8 °F /  6 °C 30.23 in /  1023.6 hPa Calm     51 % 0.00 in /  0 mm
13:18 61.1 °F /  16.2 °C 42.8 °F /  6 °C 30.23 in /  1023.6 hPa WNW 2.0 mph /  3.2 km/h 2.0 mph /  3.2 km/h 51 % 0.00 in /  0 mm
13:19 61.1 °F /  16.2 °C 42.8 °F /  6 °C 30.23 in /  1023.6 hPa WNW 3.5 mph /  5.6 km/h 3.5 mph /  5.6 km/h 51 % 0.00 in /  0 mm
13:24 61.1 °F /  16.2 °C 42.8 °F /  6 °C 30.23 in /  1023.6 hPa WNW 1.2 mph /  1.9 km/h 1.2 mph /  1.9 km/h 51 % 0.00 in /  0 mm
13:26 61.1 °F /  16.2 °C 42.3 °F /  5.7 °C 30.23 in /  1023.6 hPa West 1.2 mph /  1.9 km/h 1.2 mph /  1.9 km/h 50 % 0.00 in /  0 mm
13:28 61.1 °F /  16.2 °C 42.3 °F /  5.7 °C 30.23 in /  1023.6 hPa Calm     50 % 0.00 in /  0 mm
13:32 61.3 °F /  16.3 °C 43.0 °F /  6.1 °C 30.22 in /  1023.2 hPa Calm     51 % 0.00 in /  0 mm
13:37 61.6 °F /  16.4 °C 42.8 °F /  6 °C 30.22 in /  1023.2 hPa NW 2.0 mph /  3.2 km/h 2.0 mph /  3.2 km/h 50 % 0.00 in /  0 mm
13:40 61.6 °F /  16.4 °C 42.2 °F /  5.7 °C 30.22 in /  1023.2 hPa North 1.2 mph /  1.9 km/h 1.2 mph /  1.9 km/h 49 % 0.00 in /  0 mm
13:45 61.6 °F /  16.4 °C 42.8 °F /  6 °C 30.22 in /  1023.2 hPa NW 1.2 mph /  1.9 km/h 1.2 mph /  1.9 km/h 50 % 0.00 in /  0 mm
13:49 61.7 °F /  16.5 °C 42.9 °F /  6.1 °C 30.22 in /  1023.2 hPa NW 1.2 mph /  1.9 km/h 1.2 mph /  1.9 km/h 50 % 0.00 in /  0 mm
13:51 61.7 °F /  16.5 °C 42.9 °F /  6.1 °C 30.22 in /  1023.2 hPa WNW 1.2 mph /  1.9 km/h 1.2 mph /  1.9 km/h 50 % 0.00 in /  0 mm
13:57 61.8 °F /  16.6 °C 43.0 °F /  6.1 °C 30.22 in /  1023.2 hPa Calm     50 % 0.00 in /  0 mm
13:58 61.8 °F /  16.6 °C 43.0 °F /  6.1 °C 30.22 in /  1023.2 hPa Calm     50 % 0.00 in /  0 mm
14:00 61.8 °F /  16.6 °C 43.0 °F /  6.1 °C 30.22 in /  1023.2 hPa WNW 2.3 mph /  3.7 km/h 2.3 mph /  3.7 km/h 50 % 0.00 in /  0 mm
14:05 61.9 °F /  16.6 °C 42.5 °F /  5.8 °C 30.22 in /  1023.2 hPa WSW 2.0 mph /  3.2 km/h 2.0 mph /  3.2 km/h 49 % 0.00 in /  0 mm
14:06 61.9 °F /  16.6 °C 42.5 °F /  5.8 °C 30.22 in /  1023.2 hPa WNW 1.2 mph /  1.9 km/h 1.2 mph /  1.9 km/h 49 % 0.00 in /  0 mm
14:11 61.8 °F /  16.6 °C 42.4 °F /  5.8 °C 30.22 in /  1023.2 hPa Calm   0.1 mph /  0.2 km/h 49 % 0.00 in /  0 mm
14:12 61.9 °F /  16.6 °C 42.5 °F /  5.8 °C 30.22 in /  1023.2 hPa SW 1.2 mph /  1.9 km/h 1.2 mph /  1.9 km/h 49 % 0.00 in /  0 mm
14:17 62.0 °F /  16.7 °C 42.1 °F /  5.6 °C 30.22 in /  1023.2 hPa NW 1.2 mph /  1.9 km/h 1.2 mph /  1.9 km/h 48 % 0.00 in /  0 mm
14:22 62.0 °F /  16.7 °C 42.6 °F /  5.9 °C 30.22 in /  1023.2 hPa NW 1.2 mph /  1.9 km/h 1.2 mph /  1.9 km/h 49 % 0.00 in /  0 mm
14:24 62.0 °F /  16.7 °C 42.6 °F /  5.9 °C 30.22 in /  1023.2 hPa WNW 1.2 mph /  1.9 km/h 1.2 mph /  1.9 km/h 49 % 0.00 in /  0 mm
14:29 62.1 °F /  16.7 °C 42.7 °F /  5.9 °C 30.22 in /  1023.2 hPa NW 1.2 mph /  1.9 km/h   49 % 0.00 in /  0 mm
14:35 62.2 °F /  16.8 °C 42.8 °F /  6 °C 30.21 in /  1022.9 hPa NW 2.3 mph /  3.7 km/h 2.3 mph /  3.7 km/h 49 % 0.00 in /  0 mm
14:36 62.2 °F /  16.8 °C 42.3 °F /  5.7 °C 30.21 in /  1022.9 hPa NW 1.2 mph /  1.9 km/h   48 % 0.00 in /  0 mm
14:37 62.2 °F /  16.8 °C 42.3 °F /  5.7 °C 30.21 in /  1022.9 hPa WNW 1.2 mph /  1.9 km/h 1.2 mph /  1.9 km/h 48 % 0.00 in /  0 mm
14:42 62.0 °F /  16.7 °C 42.6 °F /  5.9 °C 30.22 in /  1023.2 hPa Calm   0.2 mph /  0.3 km/h 49 % 0.00 in /  0 mm
14:45 62.0 °F /  16.7 °C 42.1 °F /  5.6 °C 30.22 in /  1023.2 hPa Calm     48 % 0.00 in /  0 mm
14:50 62.0 °F /  16.7 °C 42.6 °F /  5.9 °C 30.22 in /  1023.2 hPa NW 2.3 mph /  3.7 km/h 2.3 mph /  3.7 km/h 49 % 0.00 in /  0 mm
14:51 62.0 °F /  16.7 °C 42.6 °F /  5.9 °C 30.22 in /  1023.2 hPa WNW 1.2 mph /  1.9 km/h 1.2 mph /  1.9 km/h 49 % 0.00 in /  0 mm
14:56 61.9 °F /  16.6 °C 42.5 °F /  5.8 °C 30.22 in /  1023.2 hPa WSW 1.2 mph /  1.9 km/h 1.2 mph /  1.9 km/h 49 % 0.00 in /  0 mm
15:01 61.8 °F /  16.6 °C 42.4 °F /  5.8 °C 30.22 in /  1023.2 hPa Calm   0.1 mph /  0.2 km/h 49 % 0.00 in /  0 mm
15:02 61.8 °F /  16.6 °C 42.4 °F /  5.8 °C 30.22 in /  1023.2 hPa Calm   0.3 mph /  0.5 km/h 49 % 0.00 in /  0 mm
15:07 61.7 °F /  16.5 °C 42.3 °F /  5.7 °C 30.22 in /  1023.2 hPa NW 1.2 mph /  1.9 km/h   49 % 0.00 in /  0 mm
15:13 61.7 °F /  16.5 °C 42.3 °F /  5.7 °C 30.22 in /  1023.2 hPa Calm     49 % 0.00 in /  0 mm
15:18 61.6 °F /  16.4 °C 42.2 °F /  5.7 °C 30.22 in /  1023.2 hPa Calm   0.5 mph /  0.8 km/h 49 % 0.00 in /  0 mm
15:22 61.6 °F /  16.4 °C 42.2 °F /  5.7 °C 30.22 in /  1023.2 hPa Calm   0.1 mph /  0.2 km/h 49 % 0.00 in /  0 mm
15:27 61.5 °F /  16.4 °C 43.2 °F /  6.2 °C 30.22 in /  1023.2 hPa NW 1.2 mph /  1.9 km/h 1.2 mph /  1.9 km/h 51 % 0.00 in /  0 mm
15:28 61.5 °F /  16.4 °C 43.2 °F /  6.2 °C 30.22 in /  1023.2 hPa NW 1.2 mph /  1.9 km/h   51 % 0.00 in /  0 mm
15:33 61.4 °F /  16.3 °C 42.1 °F /  5.6 °C 30.22 in /  1023.2 hPa Calm     49 % 0.00 in /  0 mm
15:34 61.3 °F /  16.3 °C 42.0 °F /  5.6 °C 30.22 in /  1023.2 hPa Calm     49 % 0.00 in /  0 mm
15:39 61.2 °F /  16.2 °C 42.4 °F /  5.8 °C 30.22 in /  1023.2 hPa Calm     50 % 0.00 in /  0 mm
15:41 61.2 °F /  16.2 °C 42.4 °F /  5.8 °C 30.22 in /  1023.2 hPa Calm     50 % 0.00 in /  0 mm
15:45 61.1 °F /  16.2 °C 42.3 °F /  5.7 °C 30.22 in /  1023.2 hPa Calm     50 % 0.00 in /  0 mm
15:47 61.0 °F /  16.1 °C 42.7 °F /  5.9 °C 30.22 in /  1023.2 hPa Calm     51 % 0.00 in /  0 mm
15:52 60.8 °F /  16 °C 42.5 °F /  5.8 °C 30.22 in /  1023.2 hPa Calm     51 % 0.00 in /  0 mm
15:57 60.7 °F /  15.9 °C 42.5 °F /  5.8 °C 30.22 in /  1023.2 hPa Calm     51 % 0.00 in /  0 mm
15:59 60.6 °F /  15.9 °C 42.9 °F /  6.1 °C 30.22 in /  1023.2 hPa WNW 1.2 mph /  1.9 km/h   52 % 0.00 in /  0 mm
16:04 60.4 °F /  15.8 °C 42.7 °F /  5.9 °C 30.22 in /  1023.2 hPa WNW 1.0 mph /  1.6 km/h   52 % 0.00 in /  0 mm
16:07 60.3 °F /  15.7 °C 42.6 °F /  5.9 °C 30.22 in /  1023.2 hPa Calm     52 % 0.00 in /  0 mm
16:12 60.0 °F /  15.6 °C 42.8 °F /  6 °C 30.22 in /  1023.2 hPa Calm     53 % 0.00 in /  0 mm
16:14 59.8 °F /  15.4 °C 42.6 °F /  5.9 °C 30.22 in /  1023.2 hPa Calm     53 % 0.00 in /  0 mm
16:19 59.4 °F /  15.2 °C 42.7 °F /  5.9 °C 30.22 in /  1023.2 hPa Calm     54 % 0.00 in /  0 mm
16:20 59.2 °F /  15.1 °C 42.6 °F /  5.9 °C 30.22 in /  1023.2 hPa Calm     54 % 0.00 in /  0 mm
16:21 59.1 °F /  15.1 °C 42.5 °F /  5.8 °C 30.22 in /  1023.2 hPa Calm     54 % 0.00 in /  0 mm
16:26 58.4 °F /  14.7 °C 42.3 °F /  5.7 °C 30.22 in /  1023.2 hPa Calm     55 % 0.00 in /  0 mm
16:31 58.0 °F /  14.4 °C 43.3 °F /  6.3 °C 30.21 in /  1022.9 hPa Calm     58 % 0.00 in /  0 mm
16:32 57.9 °F /  14.4 °C 43.2 °F /  6.2 °C 30.22 in /  1023.2 hPa Calm     58 % 0.00 in /  0 mm
16:35 57.5 °F /  14.2 °C 43.3 °F /  6.3 °C 30.21 in /  1022.9 hPa Calm     59 % 0.00 in /  0 mm
16:40 56.8 °F /  13.8 °C 43.5 °F /  6.4 °C 30.21 in /  1022.9 hPa Calm     61 % 0.00 in /  0 mm
16:42 56.6 °F /  13.7 °C 43.7 °F /  6.5 °C 30.21 in /  1022.9 hPa Calm     62 % 0.00 in /  0 mm
16:47 55.9 °F /  13.3 °C 43.5 °F /  6.4 °C 30.21 in /  1022.9 hPa Calm     63 % 0.00 in /  0 mm
16:52 55.4 °F /  13 °C 43.0 °F /  6.1 °C 30.21 in /  1022.9 hPa Calm     63 % 0.00 in /  0 mm
16:53 55.2 °F /  12.9 °C 43.2 °F /  6.2 °C 30.21 in /  1022.9 hPa Calm     64 % 0.00 in /  0 mm
16:58 54.5 °F /  12.5 °C 43.0 °F /  6.1 °C 30.21 in /  1022.9 hPa Calm     65 % 0.00 in /  0 mm
17:03 53.9 °F /  12.2 °C 42.8 °F /  6 °C 30.21 in /  1022.9 hPa Calm     66 % 0.00 in /  0 mm
17:04 53.8 °F /  12.1 °C 42.7 °F /  5.9 °C 30.21 in /  1022.9 hPa Calm     66 % 0.00 in /  0 mm
17:09 53.2 °F /  11.8 °C 43.3 °F /  6.3 °C 30.22 in /  1023.2 hPa Calm     69 % 0.00 in /  0 mm
17:10 53.1 °F /  11.7 °C 43.2 °F /  6.2 °C 30.22 in /  1023.2 hPa Calm     69 % 0.00 in /  0 mm
17:14 52.9 °F /  11.6 °C 43.0 °F /  6.1 °C 30.22 in /  1023.2 hPa Calm     69 % 0.00 in /  0 mm
17:16 52.7 °F /  11.5 °C 43.2 °F /  6.2 °C 30.22 in /  1023.2 hPa Calm     70 % 0.00 in /  0 mm
17:21 52.4 °F /  11.3 °C 43.3 °F /  6.3 °C 30.22 in /  1023.2 hPa Calm     71 % 0.00 in /  0 mm
17:26 52.3 °F /  11.3 °C 43.2 °F /  6.2 °C 30.22 in /  1023.2 hPa Calm     71 % 0.00 in /  0 mm
17:31 52.0 °F /  11.1 °C 42.9 °F /  6.1 °C 30.22 in /  1023.2 hPa Calm     71 % 0.00 in /  0 mm
17:36 51.9 °F /  11.1 °C 42.8 °F /  6 °C 30.22 in /  1023.2 hPa Calm     71 % 0.00 in /  0 mm
17:40 51.8 °F /  11 °C 42.7 °F /  5.9 °C 30.22 in /  1023.2 hPa Calm     71 % 0.00 in /  0 mm
17:45 51.5 °F /  10.8 °C 42.8 °F /  6 °C 30.22 in /  1023.2 hPa Calm     72 % 0.00 in /  0 mm
17:46 51.5 °F /  10.8 °C 42.8 °F /  6 °C 30.22 in /  1023.2 hPa Calm     72 % 0.00 in /  0 mm
17:51 51.2 °F /  10.7 °C 42.5 °F /  5.8 °C 30.22 in /  1023.2 hPa Calm     72 % 0.00 in /  0 mm
17:52 51.1 °F /  10.6 °C 42.4 °F /  5.8 °C 30.22 in /  1023.2 hPa Calm     72 % 0.00 in /  0 mm
17:53 51.1 °F /  10.6 °C 42.4 °F /  5.8 °C 30.22 in /  1023.2 hPa Calm     72 % 0.00 in /  0 mm
17:58 50.8 °F /  10.4 °C 42.1 °F /  5.6 °C 30.22 in /  1023.2 hPa Calm     72 % 0.00 in /  0 mm
17:59 50.7 °F /  10.4 °C 42.0 °F /  5.6 °C 30.22 in /  1023.2 hPa Calm     72 % 0.00 in /  0 mm
18:04 50.1 °F /  10.1 °C 41.8 °F /  5.4 °C 30.22 in /  1023.2 hPa Calm     73 % 0.00 in /  0 mm
18:06 49.8 °F /  9.9 °C 41.8 °F /  5.4 °C 30.22 in /  1023.2 hPa Calm     74 % 0.00 in /  0 mm
18:11 49.2 °F /  9.6 °C 41.6 °F /  5.3 °C 30.23 in /  1023.6 hPa Calm     75 % 0.00 in /  0 mm
18:15 48.7 °F /  9.3 °C 41.5 °F /  5.3 °C 30.23 in /  1023.6 hPa Calm     76 % 0.00 in /  0 mm
18:17 48.5 °F /  9.2 °C 41.6 °F /  5.3 °C 30.23 in /  1023.6 hPa Calm     77 % 0.00 in /  0 mm
18:22 48.2 °F /  9 °C 41.7 °F /  5.4 °C 30.23 in /  1023.6 hPa Calm     78 % 0.00 in /  0 mm
18:26 48.0 °F /  8.9 °C 41.5 °F /  5.3 °C 30.23 in /  1023.6 hPa Calm     78 % 0.00 in /  0 mm
18:31 47.7 °F /  8.7 °C 41.2 °F /  5.1 °C 30.23 in /  1023.6 hPa Calm     78 % 0.00 in /  0 mm
18:36 47.3 °F /  8.5 °C 41.1 °F /  5.1 °C 30.23 in /  1023.6 hPa Calm     79 % 0.00 in /  0 mm
18:37 47.2 °F /  8.4 °C 41.0 °F /  5 °C 30.23 in /  1023.6 hPa Calm     79 % 0.00 in /  0 mm
18:42 47.0 °F /  8.3 °C 40.8 °F /  4.9 °C 30.23 in /  1023.6 hPa Calm     79 % 0.00 in /  0 mm
18:43 47.0 °F /  8.3 °C 40.8 °F /  4.9 °C 30.23 in /  1023.6 hPa Calm     79 % 0.00 in /  0 mm
18:45 46.9 °F /  8.3 °C 40.7 °F /  4.8 °C 30.23 in /  1023.6 hPa Calm     79 % 0.00 in /  0 mm
18:48 46.7 °F /  8.2 °C 40.9 °F /  4.9 °C 30.23 in /  1023.6 hPa Calm     80 % 0.00 in /  0 mm
18:53 47.0 °F /  8.3 °C 41.1 °F /  5.1 °C 30.23 in /  1023.6 hPa Calm     80 % 0.00 in /  0 mm
18:56 47.5 °F /  8.6 °C 41.3 °F /  5.2 °C 30.23 in /  1023.6 hPa Calm     79 % 0.00 in /  0 mm
18:59 47.7 °F /  8.7 °C 41.2 °F /  5.1 °C 30.23 in /  1023.6 hPa Calm     78 % 0.00 in /  0 mm
19:04 48.0 °F /  8.9 °C 41.1 °F /  5.1 °C 30.23 in /  1023.6 hPa Calm     77 % 0.00 in /  0 mm
19:09 48.1 °F /  8.9 °C 41.2 °F /  5.1 °C 30.23 in /  1023.6 hPa Calm     77 % 0.00 in /  0 mm
19:14 48.4 °F /  9.1 °C 41.2 °F /  5.1 °C 30.23 in /  1023.6 hPa Calm     76 % 0.00 in /  0 mm
19:19 48.3 °F /  9.1 °C 41.1 °F /  5.1 °C 30.23 in /  1023.6 hPa Calm     76 % 0.00 in /  0 mm
19:22 47.9 °F /  8.8 °C 40.7 °F /  4.8 °C 30.23 in /  1023.6 hPa Calm     76 % 0.00 in /  0 mm
19:24 47.8 °F /  8.8 °C 40.6 °F /  4.8 °C 30.23 in /  1023.6 hPa Calm     76 % 0.00 in /  0 mm
19:29 47.2 °F /  8.4 °C 40.4 °F /  4.7 °C 30.23 in /  1023.6 hPa Calm     77 % 0.00 in /  0 mm
19:34 46.8 °F /  8.2 °C 40.3 °F /  4.6 °C 30.23 in /  1023.6 hPa Calm     78 % 0.00 in /  0 mm
19:35 46.8 °F /  8.2 °C 40.3 °F /  4.6 °C 30.23 in /  1023.6 hPa Calm     78 % 0.00 in /  0 mm
19:40 46.4 °F /  8 °C 39.9 °F /  4.4 °C 30.23 in /  1023.6 hPa Calm     78 % 0.00 in /  0 mm
19:41 46.3 °F /  7.9 °C 39.8 °F /  4.3 °C 30.23 in /  1023.6 hPa Calm     78 % 0.00 in /  0 mm
19:42 46.3 °F /  7.9 °C 39.8 °F /  4.3 °C 30.23 in /  1023.6 hPa Calm     78 % 0.00 in /  0 mm
19:47 45.9 °F /  7.7 °C 40.1 °F /  4.5 °C 30.23 in /  1023.6 hPa Calm     80 % 0.00 in /  0 mm
19:52 45.7 °F /  7.6 °C 39.9 °F /  4.4 °C 30.23 in /  1023.6 hPa Calm     80 % 0.00 in /  0 mm
19:56 45.4 °F /  7.4 °C 39.6 °F /  4.2 °C 30.23 in /  1023.6 hPa Calm     80 % 0.00 in /  0 mm
19:57 45.4 °F /  7.4 °C 39.9 °F /  4.4 °C 30.23 in /  1023.6 hPa Calm     81 % 0.00 in /  0 mm
20:02 45.3 °F /  7.4 °C 39.8 °F /  4.3 °C 30.23 in /  1023.6 hPa Calm     81 % 0.00 in /  0 mm
20:03 45.3 °F /  7.4 °C 39.5 °F /  4.2 °C 30.23 in /  1023.6 hPa Calm     80 % 0.00 in /  0 mm
20:08 45.1 °F /  7.3 °C 39.6 °F /  4.2 °C 30.23 in /  1023.6 hPa Calm     81 % 0.00 in /  0 mm
20:10 45.1 °F /  7.3 °C 39.9 °F /  4.4 °C 30.23 in /  1023.6 hPa Calm     82 % 0.00 in /  0 mm
20:15 45.0 °F /  7.2 °C 39.5 °F /  4.2 °C 30.23 in /  1023.6 hPa Calm     81 % 0.00 in /  0 mm
20:20 44.8 °F /  7.1 °C 39.3 °F /  4.1 °C 30.23 in /  1023.6 hPa Calm     81 % 0.00 in /  0 mm
20:22 44.7 °F /  7.1 °C 39.2 °F /  4 °C 30.23 in /  1023.6 hPa Calm     81 % 0.00 in /  0 mm
20:27 44.4 °F /  6.9 °C 38.9 °F /  3.8 °C 30.23 in /  1023.6 hPa Calm     81 % 0.00 in /  0 mm
20:29 44.3 °F /  6.8 °C 38.8 °F /  3.8 °C 30.23 in /  1023.6 hPa Calm     81 % 0.00 in /  0 mm
20:35 44.1 °F /  6.7 °C 39.3 °F /  4.1 °C 30.23 in /  1023.6 hPa Calm     83 % 0.00 in /  0 mm
20:40 44.1 °F /  6.7 °C 39.3 °F /  4.1 °C 30.23 in /  1023.6 hPa Calm     83 % 0.00 in /  0 mm
20:45 44.0 °F /  6.7 °C 39.2 °F /  4 °C 30.23 in /  1023.6 hPa Calm     83 % 0.00 in /  0 mm
20:47 44.0 °F /  6.7 °C 39.2 °F /  4 °C 30.23 in /  1023.6 hPa Calm     83 % 0.00 in /  0 mm
20:52 43.8 °F /  6.6 °C 39.0 °F /  3.9 °C 30.23 in /  1023.6 hPa Calm     83 % 0.00 in /  0 mm
20:54 43.8 °F /  6.6 °C 39.3 °F /  4.1 °C 30.23 in /  1023.6 hPa Calm     84 % 0.00 in /  0 mm
20:59 43.8 °F /  6.6 °C 39.3 °F /  4.1 °C 30.23 in /  1023.6 hPa Calm     84 % 0.00 in /  0 mm
21:00 43.8 °F /  6.6 °C 39.3 °F /  4.1 °C 30.24 in /  1023.9 hPa Calm     84 % 0.00 in /  0 mm
21:05 43.8 °F /  6.6 °C 39.3 °F /  4.1 °C 30.24 in /  1023.9 hPa Calm     84 % 0.00 in /  0 mm
21:10 43.7 °F /  6.5 °C 39.2 °F /  4 °C 30.24 in /  1023.9 hPa Calm     84 % 0.00 in /  0 mm
21:15 43.6 °F /  6.4 °C 39.1 °F /  3.9 °C 30.24 in /  1023.9 hPa Calm     84 % 0.00 in /  0 mm
21:17 43.5 °F /  6.4 °C 39.0 °F /  3.9 °C 30.24 in /  1023.9 hPa Calm     84 % 0.00 in /  0 mm
21:22 43.3 °F /  6.3 °C 39.1 °F /  3.9 °C 30.24 in /  1023.9 hPa Calm     85 % 0.00 in /  0 mm
21:23 43.2 °F /  6.2 °C 39.0 °F /  3.9 °C 30.24 in /  1023.9 hPa Calm     85 % 0.00 in /  0 mm
21:28 43.1 °F /  6.2 °C 38.9 °F /  3.8 °C 30.24 in /  1023.9 hPa Calm     85 % 0.00 in /  0 mm
21:33 43.0 °F /  6.1 °C 38.8 °F /  3.8 °C 30.24 in /  1023.9 hPa Calm     85 % 0.00 in /  0 mm
21:38 42.8 °F /  6 °C 38.6 °F /  3.7 °C 30.24 in /  1023.9 hPa Calm     85 % 0.00 in /  0 mm
21:39 42.8 °F /  6 °C 38.6 °F /  3.7 °C 30.24 in /  1023.9 hPa Calm     85 % 0.00 in /  0 mm
21:44 42.6 °F /  5.9 °C 38.7 °F /  3.7 °C 30.24 in /  1023.9 hPa Calm     86 % 0.00 in /  0 mm
21:45 42.6 °F /  5.9 °C 38.7 °F /  3.7 °C 30.24 in /  1023.9 hPa Calm     86 % 0.00 in /  0 mm
21:49 42.6 °F /  5.9 °C 38.7 °F /  3.7 °C 30.24 in /  1023.9 hPa Calm     86 % 0.00 in /  0 mm
21:54 42.7 °F /  5.9 °C 39.1 °F /  3.9 °C 30.24 in /  1023.9 hPa Calm     87 % 0.00 in /  0 mm
21:55 42.7 °F /  5.9 °C 39.1 °F /  3.9 °C 30.24 in /  1023.9 hPa Calm     87 % 0.00 in /  0 mm
22:00 43.1 °F /  6.2 °C 39.2 °F /  4 °C 30.24 in /  1023.9 hPa Calm     86 % 0.00 in /  0 mm
22:05 43.3 °F /  6.3 °C 39.1 °F /  3.9 °C 30.24 in /  1023.9 hPa Calm     85 % 0.00 in /  0 mm
22:06 43.2 °F /  6.2 °C 39.0 °F /  3.9 °C 30.24 in /  1023.9 hPa Calm     85 % 0.00 in /  0 mm
22:11 43.1 °F /  6.2 °C 38.6 °F /  3.7 °C 30.24 in /  1023.9 hPa Calm     84 % 0.00 in /  0 mm
22:14 43.0 °F /  6.1 °C 38.5 °F /  3.6 °C 30.24 in /  1023.9 hPa Calm     84 % 0.00 in /  0 mm
22:15 42.9 °F /  6.1 °C 38.4 °F /  3.6 °C 30.24 in /  1023.9 hPa Calm     84 % 0.00 in /  0 mm
22:20 42.5 °F /  5.8 °C 38.0 °F /  3.3 °C 30.24 in /  1023.9 hPa Calm     84 % 0.00 in /  0 mm
22:21 42.4 °F /  5.8 °C 37.9 °F /  3.3 °C 30.24 in /  1023.9 hPa Calm     84 % 0.00 in /  0 mm
22:26 42.0 °F /  5.6 °C 37.5 °F /  3.1 °C 30.24 in /  1023.9 hPa Calm     84 % 0.00 in /  0 mm
22:28 41.9 °F /  5.5 °C 37.7 °F /  3.2 °C 30.25 in /  1024.3 hPa Calm     85 % 0.00 in /  0 mm
22:33 42.0 °F /  5.6 °C 38.1 °F /  3.4 °C 30.24 in /  1023.9 hPa Calm     86 % 0.00 in /  0 mm
22:35 41.9 °F /  5.5 °C 38.0 °F /  3.3 °C 30.24 in /  1023.9 hPa Calm     86 % 0.00 in /  0 mm
22:41 41.7 °F /  5.4 °C 37.8 °F /  3.2 °C 30.24 in /  1023.9 hPa Calm     86 % 0.00 in /  0 mm
22:44 41.6 °F /  5.3 °C 37.7 °F /  3.2 °C 30.24 in /  1023.9 hPa Calm     86 % 0.00 in /  0 mm
22:48 41.5 °F /  5.3 °C 37.6 °F /  3.1 °C 30.24 in /  1023.9 hPa Calm     86 % 0.00 in /  0 mm
22:53 41.5 °F /  5.3 °C 37.6 °F /  3.1 °C 30.25 in /  1024.3 hPa Calm     86 % 0.00 in /  0 mm
22:58 41.4 °F /  5.2 °C 37.5 °F /  3.1 °C 30.25 in /  1024.3 hPa Calm     86 % 0.00 in /  0 mm
23:03 41.2 °F /  5.1 °C 37.3 °F /  2.9 °C 30.25 in /  1024.3 hPa Calm     86 % 0.00 in /  0 mm
23:04 41.2 °F /  5.1 °C 37.3 °F /  2.9 °C 30.25 in /  1024.3 hPa Calm     86 % 0.00 in /  0 mm
23:05 41.2 °F /  5.1 °C 37.3 °F /  2.9 °C 30.25 in /  1024.3 hPa Calm     86 % 0.00 in /  0 mm
23:10 40.7 °F /  4.8 °C 36.8 °F /  2.7 °C 30.25 in /  1024.3 hPa Calm     86 % 0.00 in /  0 mm
23:15 40.5 °F /  4.7 °C 36.9 °F /  2.7 °C 30.25 in /  1024.3 hPa Calm     87 % 0.00 in /  0 mm
23:19 40.4 °F /  4.7 °C 36.8 °F /  2.7 °C 30.25 in /  1024.3 hPa Calm     87 % 0.00 in /  0 mm
23:24 40.5 °F /  4.7 °C 37.2 °F /  2.9 °C 30.25 in /  1024.3 hPa Calm     88 % 0.00 in /  0 mm
23:29 40.6 °F /  4.8 °C 37.3 °F /  2.9 °C 30.25 in /  1024.3 hPa Calm     88 % 0.00 in /  0 mm
23:31 40.6 °F /  4.8 °C 37.3 °F /  2.9 °C 30.24 in /  1023.9 hPa Calm     88 % 0.00 in /  0 mm
23:36 40.4 °F /  4.7 °C 37.1 °F /  2.8 °C 30.24 in /  1023.9 hPa Calm     88 % 0.00 in /  0 mm
23:37 40.4 °F /  4.7 °C 37.1 °F /  2.8 °C 30.24 in /  1023.9 hPa Calm     88 % 0.00 in /  0 mm
23:42 40.3 °F /  4.6 °C 37.0 °F /  2.8 °C 30.24 in /  1023.9 hPa Calm     88 % 0.00 in /  0 mm
23:44 40.3 °F /  4.6 °C 36.7 °F /  2.6 °C 30.24 in /  1023.9 hPa Calm     87 % 0.00 in /  0 mm
23:48 40.0 °F /  4.4 °C 36.2 °F /  2.3 °C 30.24 in /  1023.9 hPa Calm     86 % 0.00 in /  0 mm
23:51 39.7 °F /  4.3 °C 36.1 °F /  2.3 °C 30.24 in /  1023.9 hPa Calm     87 % 0.00 in /  0 mm
23:53 39.6 °F /  4.2 °C 36.3 °F /  2.4 °C 30.24 in /  1023.9 hPa Calm     88 % 0.00 in /  0 mm
23:58 39.3 °F /  4.1 °C 36.0 °F /  2.2 °C 30.24 in /  1023.9 hPa Calm     88 % 0.00 in /  0 mm
23:59 39.3 °F /  4.1 °C 36.0 °F /  2.2 °C 30.24 in /  1023.9 hPa Calm     88 % 0.00 in /  0 mm
Park Place, Exeter, Tulare County, California, USA
Compliments of Weather Underground - 3.5 mb